sensor_id;sensor_type;location;lat;lon;timestamp;P1;durP1;ratioP1;P2;durP2;ratioP2
50591;SDS011;36548;50.506;30.834;2022-10-31T00:02:29;3.80;;;1.34;;
50591;SDS011;36548;50.506;30.834;2022-10-31T00:03:39;2.10;;;1.50;;
50591;SDS011;36548;50.506;30.834;2022-10-31T00:04:47;2.82;;;1.52;;
50591;SDS011;36548;50.506;30.834;2022-10-31T00:05:57;5.20;;;2.28;;
50591;SDS011;36548;50.506;30.834;2022-10-31T00:07:12;3.48;;;1.57;;
50591;SDS011;36548;50.506;30.834;2022-10-31T00:08:20;5.47;;;1.87;;
50591;SDS011;36548;50.506;30.834;2022-10-31T00:09:35;3.12;;;1.73;;
50591;SDS011;36548;50.506;30.834;2022-10-31T00:10:44;6.17;;;1.93;;
50591;SDS011;36548;50.506;30.834;2022-10-31T00:11:54;4.80;;;1.90;;
50591;SDS011;36548;50.506;30.834;2022-10-31T00:13:11;3.80;;;1.78;;
50591;SDS011;36548;50.506;30.834;2022-10-31T00:14:21;6.50;;;2.37;;
50591;SDS011;36548;50.506;30.834;2022-10-31T00:15:32;4.57;;;1.62;;
50591;SDS011;36548;50.506;30.834;2022-10-31T00:16:42;6.60;;;1.62;;
50591;SDS011;36548;50.506;30.834;2022-10-31T00:17:58;4.37;;;1.87;;
50591;SDS011;36548;50.506;30.834;2022-10-31T00:19:08;4.64;;;2.38;;
50591;SDS011;36548;50.506;30.834;2022-10-31T00:20:24;4.80;;;2.67;;
50591;SDS011;36548;50.506;30.834;2022-10-31T00:21:37;4.90;;;1.75;;
50591;SDS011;36548;50.506;30.834;2022-10-31T00:22:52;4.93;;;1.67;;
50591;SDS011;36548;50.506;30.834;2022-10-31T00:24:01;4.27;;;1.50;;
50591;SDS011;36548;50.506;30.834;2022-10-31T00:25:17;3.27;;;1.68;;
50591;SDS011;36548;50.506;30.834;2022-10-31T00:26:28;4.40;;;2.05;;
50591;SDS011;36548;50.506;30.834;2022-10-31T00:27:42;3.67;;;1.83;;
50591;SDS011;36548;50.506;30.834;2022-10-31T00:28:58;5.88;;;1.75;;
50591;SDS011;36548;50.506;30.834;2022-10-31T00:30:09;5.52;;;2.17;;
50591;SDS011;36548;50.506;30.834;2022-10-31T00:31:19;5.12;;;1.42;;
50591;SDS011;36548;50.506;30.834;2022-10-31T00:32:34;5.30;;;1.93;;
50591;SDS011;36548;50.506;30.834;2022-10-31T00:33:43;5.52;;;1.53;;
50591;SDS011;36548;50.506;30.834;2022-10-31T00:34:53;3.53;;;2.00;;
50591;SDS011;36548;50.506;30.834;2022-10-31T00:36:02;5.20;;;2.13;;
50591;SDS011;36548;50.506;30.834;2022-10-31T00:37:18;6.52;;;2.12;;
50591;SDS011;36548;50.506;30.834;2022-10-31T00:38:27;3.95;;;1.83;;
50591;SDS011;36548;50.506;30.834;2022-10-31T00:39:36;3.72;;;1.75;;
50591;SDS011;36548;50.506;30.834;2022-10-31T00:40:46;3.65;;;1.65;;
50591;SDS011;36548;50.506;30.834;2022-10-31T00:41:54;6.40;;;1.73;;
50591;SDS011;36548;50.506;30.834;2022-10-31T00:43:09;4.03;;;2.07;;
50591;SDS011;36548;50.506;30.834;2022-10-31T00:44:19;3.10;;;1.70;;
50591;SDS011;36548;50.506;30.834;2022-10-31T00:45:53;3.88;;;1.60;;
50591;SDS011;36548;50.506;30.834;2022-10-31T00:47:05;3.38;;;1.23;;
50591;SDS011;36548;50.506;30.834;2022-10-31T00:48:20;3.47;;;1.82;;
50591;SDS011;36548;50.506;30.834;2022-10-31T00:49:30;5.43;;;1.68;;
50591;SDS011;36548;50.506;30.834;2022-10-31T00:50:39;6.45;;;1.68;;
50591;SDS011;36548;50.506;30.834;2022-10-31T00:52:59;4.90;;;1.58;;
50591;SDS011;36548;50.506;30.834;2022-10-31T00:54:09;3.35;;;1.70;;
50591;SDS011;36548;50.506;30.834;2022-10-31T00:55:18;4.37;;;1.68;;
50591;SDS011;36548;50.506;30.834;2022-10-31T00:56:28;3.38;;;1.73;;
50591;SDS011;36548;50.506;30.834;2022-10-31T00:57:37;4.45;;;1.63;;
50591;SDS011;36548;50.506;30.834;2022-10-31T00:58:47;3.78;;;1.78;;
50591;SDS011;36548;50.506;30.834;2022-10-31T00:59:56;6.75;;;1.97;;
50591;SDS011;36548;50.506;30.834;2022-10-31T01:01:11;6.12;;;2.40;;
50591;SDS011;36548;50.506;30.834;2022-10-31T01:02:19;5.98;;;2.53;;
50591;SDS011;36548;50.506;30.834;2022-10-31T01:03:31;4.60;;;1.90;;
50591;SDS011;36548;50.506;30.834;2022-10-31T01:04:47;3.43;;;1.57;;
50591;SDS011;36548;50.506;30.834;2022-10-31T01:07:15;5.30;;;2.05;;
50591;SDS011;36548;50.506;30.834;2022-10-31T01:08:25;4.83;;;2.10;;
50591;SDS011;36548;50.506;30.834;2022-10-31T01:09:42;5.72;;;2.12;;
50591;SDS011;36548;50.506;30.834;2022-10-31T01:11:05;4.63;;;2.18;;
50591;SDS011;36548;50.506;30.834;2022-10-31T01:12:17;8.45;;;2.85;;
50591;SDS011;36548;50.506;30.834;2022-10-31T01:13:34;6.55;;;2.18;;
50591;SDS011;36548;50.506;30.834;2022-10-31T01:14:46;4.32;;;1.90;;
50591;SDS011;36548;50.506;30.834;2022-10-31T01:15:57;2.77;;;1.73;;
50591;SDS011;36548;50.506;30.834;2022-10-31T01:17:07;4.60;;;2.05;;
50591;SDS011;36548;50.506;30.834;2022-10-31T01:18:29;5.06;;;2.24;;
50591;SDS011;36548;50.506;30.834;2022-10-31T01:19:39;5.70;;;2.20;;
50591;SDS011;36548;50.506;30.834;2022-10-31T01:21:01;4.08;;;1.90;;
50591;SDS011;36548;50.506;30.834;2022-10-31T01:22:15;5.23;;;1.97;;
50591;SDS011;36548;50.506;30.834;2022-10-31T01:23:30;3.95;;;1.58;;
50591;SDS011;36548;50.506;30.834;2022-10-31T01:24:39;4.30;;;1.68;;
50591;SDS011;36548;50.506;30.834;2022-10-31T01:25:48;3.52;;;1.58;;
50591;SDS011;36548;50.506;30.834;2022-10-31T01:27:03;3.63;;;1.92;;
50591;SDS011;36548;50.506;30.834;2022-10-31T01:28:14;4.80;;;1.82;;
50591;SDS011;36548;50.506;30.834;2022-10-31T01:29:29;6.67;;;2.47;;
50591;SDS011;36548;50.506;30.834;2022-10-31T01:30:39;3.53;;;1.73;;
50591;SDS011;36548;50.506;30.834;2022-10-31T01:31:48;5.55;;;2.22;;
50591;SDS011;36548;50.506;30.834;2022-10-31T01:32:57;3.82;;;1.65;;
50591;SDS011;36548;50.506;30.834;2022-10-31T01:34:32;6.85;;;2.30;;
50591;SDS011;36548;50.506;30.834;2022-10-31T01:35:42;5.70;;;1.80;;
50591;SDS011;36548;50.506;30.834;2022-10-31T01:36:57;4.88;;;2.32;;
50591;SDS011;36548;50.506;30.834;2022-10-31T01:38:07;6.10;;;2.07;;
50591;SDS011;36548;50.506;30.834;2022-10-31T01:39:17;3.52;;;1.87;;
50591;SDS011;36548;50.506;30.834;2022-10-31T01:40:29;6.30;;;1.85;;
50591;SDS011;36548;50.506;30.834;2022-10-31T01:41:45;5.43;;;2.10;;
50591;SDS011;36548;50.506;30.834;2022-10-31T01:42:57;3.68;;;1.53;;
50591;SDS011;36548;50.506;30.834;2022-10-31T01:45:26;4.38;;;2.30;;
50591;SDS011;36548;50.506;30.834;2022-10-31T01:47:03;5.30;;;1.93;;
50591;SDS011;36548;50.506;30.834;2022-10-31T01:48:23;5.22;;;1.75;;
50591;SDS011;36548;50.506;30.834;2022-10-31T01:49:43;3.80;;;1.77;;
50591;SDS011;36548;50.506;30.834;2022-10-31T01:51:03;5.07;;;2.48;;
50591;SDS011;36548;50.506;30.834;2022-10-31T01:53:32;4.10;;;1.60;;
50591;SDS011;36548;50.506;30.834;2022-10-31T01:54:46;4.00;;;1.63;;
50591;SDS011;36548;50.506;30.834;2022-10-31T01:56:11;3.40;;;1.92;;
50591;SDS011;36548;50.506;30.834;2022-10-31T01:57:22;3.65;;;1.42;;
50591;SDS011;36548;50.506;30.834;2022-10-31T01:58:33;4.28;;;1.97;;
50591;SDS011;36548;50.506;30.834;2022-10-31T01:59:45;4.80;;;1.85;;
50591;SDS011;36548;50.506;30.834;2022-10-31T02:00:59;5.62;;;2.03;;
50591;SDS011;36548;50.506;30.834;2022-10-31T02:02:12;3.98;;;1.68;;
50591;SDS011;36548;50.506;30.834;2022-10-31T02:03:23;5.37;;;1.97;;
50591;SDS011;36548;50.506;30.834;2022-10-31T02:04:40;3.82;;;1.80;;
50591;SDS011;36548;50.506;30.834;2022-10-31T02:05:53;4.97;;;2.12;;
50591;SDS011;36548;50.506;30.834;2022-10-31T02:07:20;5.23;;;1.90;;
50591;SDS011;36548;50.506;30.834;2022-10-31T02:08:28;4.10;;;1.87;;
50591;SDS011;36548;50.506;30.834;2022-10-31T02:09:44;4.52;;;2.02;;
50591;SDS011;36548;50.506;30.834;2022-10-31T02:10:58;5.85;;;2.10;;
50591;SDS011;36548;50.506;30.834;2022-10-31T02:12:15;3.32;;;1.72;;
50591;SDS011;36548;50.506;30.834;2022-10-31T02:13:27;4.30;;;1.70;;
50591;SDS011;36548;50.506;30.834;2022-10-31T02:14:38;5.62;;;2.22;;
50591;SDS011;36548;50.506;30.834;2022-10-31T02:15:56;4.30;;;1.55;;
50591;SDS011;36548;50.506;30.834;2022-10-31T02:17:07;4.35;;;1.60;;
50591;SDS011;36548;50.506;30.834;2022-10-31T02:18:18;5.76;;;1.76;;
50591;SDS011;36548;50.506;30.834;2022-10-31T02:19:31;5.03;;;1.97;;
50591;SDS011;36548;50.506;30.834;2022-10-31T02:21:07;4.70;;;1.65;;
50591;SDS011;36548;50.506;30.834;2022-10-31T02:27:07;3.00;;;1.67;;
50591;SDS011;36548;50.506;30.834;2022-10-31T02:28:42;3.72;;;1.68;;
50591;SDS011;36548;50.506;30.834;2022-10-31T02:32:49;3.78;;;1.88;;
50591;SDS011;36548;50.506;30.834;2022-10-31T02:34:15;2.52;;;1.72;;
50591;SDS011;36548;50.506;30.834;2022-10-31T02:37:11;3.24;;;1.66;;
50591;SDS011;36548;50.506;30.834;2022-10-31T02:38:26;5.42;;;1.85;;
50591;SDS011;36548;50.506;30.834;2022-10-31T02:41:24;3.27;;;1.97;;
50591;SDS011;36548;50.506;30.834;2022-10-31T02:42:46;5.80;;;1.92;;
50591;SDS011;36548;50.506;30.834;2022-10-31T02:44:03;5.03;;;1.78;;
50591;SDS011;36548;50.506;30.834;2022-10-31T02:45:30;4.08;;;1.70;;
50591;SDS011;36548;50.506;30.834;2022-10-31T02:46:52;5.35;;;1.82;;
50591;SDS011;36548;50.506;30.834;2022-10-31T02:48:26;4.65;;;2.27;;
50591;SDS011;36548;50.506;30.834;2022-10-31T02:51:08;5.55;;;2.15;;
50591;SDS011;36548;50.506;30.834;2022-10-31T02:52:27;4.30;;;1.70;;
50591;SDS011;36548;50.506;30.834;2022-10-31T02:53:39;4.58;;;1.60;;
50591;SDS011;36548;50.506;30.834;2022-10-31T02:54:50;9.30;;;1.98;;
50591;SDS011;36548;50.506;30.834;2022-10-31T02:57:21;4.98;;;1.97;;
50591;SDS011;36548;50.506;30.834;2022-10-31T02:58:45;5.10;;;1.63;;
50591;SDS011;36548;50.506;30.834;2022-10-31T03:00:07;5.28;;;1.82;;
50591;SDS011;36548;50.506;30.834;2022-10-31T03:03:16;4.23;;;1.60;;
50591;SDS011;36548;50.506;30.834;2022-10-31T03:06:14;2.72;;;1.78;;
50591;SDS011;36548;50.506;30.834;2022-10-31T03:07:41;7.32;;;2.28;;
50591;SDS011;36548;50.506;30.834;2022-10-31T03:08:53;4.08;;;1.78;;
50591;SDS011;36548;50.506;30.834;2022-10-31T03:10:21;5.40;;;2.18;;
50591;SDS011;36548;50.506;30.834;2022-10-31T03:11:48;4.23;;;2.45;;
50591;SDS011;36548;50.506;30.834;2022-10-31T03:13:01;4.78;;;2.57;;
50591;SDS011;36548;50.506;30.834;2022-10-31T03:14:19;7.27;;;2.70;;
50591;SDS011;36548;50.506;30.834;2022-10-31T03:15:34;4.28;;;2.18;;
50591;SDS011;36548;50.506;30.834;2022-10-31T03:16:53;3.97;;;2.20;;
50591;SDS011;36548;50.506;30.834;2022-10-31T03:18:09;2.72;;;1.68;;
50591;SDS011;36548;50.506;30.834;2022-10-31T03:19:34;2.97;;;1.97;;
50591;SDS011;36548;50.506;30.834;2022-10-31T03:20:52;6.48;;;2.07;;
50591;SDS011;36548;50.506;30.834;2022-10-31T03:22:16;3.00;;;1.32;;
50591;SDS011;36548;50.506;30.834;2022-10-31T03:23:27;2.63;;;0.90;;
50591;SDS011;36548;50.506;30.834;2022-10-31T03:24:44;4.53;;;1.40;;
50591;SDS011;36548;50.506;30.834;2022-10-31T03:25:56;5.98;;;1.45;;
50591;SDS011;36548;50.506;30.834;2022-10-31T03:27:08;5.25;;;1.05;;
50591;SDS011;36548;50.506;30.834;2022-10-31T03:28:28;4.13;;;1.05;;
50591;SDS011;36548;50.506;30.834;2022-10-31T03:29:39;3.27;;;0.87;;
50591;SDS011;36548;50.506;30.834;2022-10-31T03:30:56;2.28;;;0.83;;
50591;SDS011;36548;50.506;30.834;2022-10-31T03:32:16;4.67;;;1.07;;
50591;SDS011;36548;50.506;30.834;2022-10-31T03:33:28;2.20;;;0.67;;
50591;SDS011;36548;50.506;30.834;2022-10-31T03:34:47;1.88;;;0.95;;
50591;SDS011;36548;50.506;30.834;2022-10-31T03:35:58;2.10;;;0.57;;
50591;SDS011;36548;50.506;30.834;2022-10-31T03:37:17;2.85;;;0.92;;
50591;SDS011;36548;50.506;30.834;2022-10-31T03:38:29;2.75;;;0.50;;
50591;SDS011;36548;50.506;30.834;2022-10-31T03:39:40;1.14;;;0.74;;
50591;SDS011;36548;50.506;30.834;2022-10-31T03:40:52;2.35;;;0.70;;
50591;SDS011;36548;50.506;30.834;2022-10-31T03:42:08;0.55;;;0.48;;
50591;SDS011;36548;50.506;30.834;2022-10-31T03:43:25;2.65;;;0.65;;
50591;SDS011;36548;50.506;30.834;2022-10-31T03:44:46;2.02;;;0.98;;
50591;SDS011;36548;50.506;30.834;2022-10-31T03:46:00;1.88;;;0.77;;
50591;SDS011;36548;50.506;30.834;2022-10-31T03:47:09;1.55;;;0.75;;
50591;SDS011;36548;50.506;30.834;2022-10-31T03:48:25;2.67;;;0.90;;
50591;SDS011;36548;50.506;30.834;2022-10-31T03:49:34;2.90;;;1.62;;
50591;SDS011;36548;50.506;30.834;2022-10-31T03:50:47;2.67;;;1.12;;
50591;SDS011;36548;50.506;30.834;2022-10-31T03:52:22;2.20;;;0.73;;
50591;SDS011;36548;50.506;30.834;2022-10-31T03:53:44;2.28;;;0.82;;
50591;SDS011;36548;50.506;30.834;2022-10-31T03:54:58;1.10;;;0.83;;
50591;SDS011;36548;50.506;30.834;2022-10-31T03:58:59;1.85;;;1.00;;
50591;SDS011;36548;50.506;30.834;2022-10-31T04:00:23;2.82;;;0.85;;
50591;SDS011;36548;50.506;30.834;2022-10-31T04:02:55;1.37;;;0.80;;
50591;SDS011;36548;50.506;30.834;2022-10-31T04:04:07;0.98;;;0.62;;
50591;SDS011;36548;50.506;30.834;2022-10-31T04:05:18;1.50;;;0.95;;
50591;SDS011;36548;50.506;30.834;2022-10-31T04:06:36;1.88;;;1.27;;
50591;SDS011;36548;50.506;30.834;2022-10-31T04:07:49;3.23;;;2.30;;
50591;SDS011;36548;50.506;30.834;2022-10-31T04:09:07;4.65;;;2.40;;
50591;SDS011;36548;50.506;30.834;2022-10-31T04:10:18;2.63;;;2.28;;
50591;SDS011;36548;50.506;30.834;2022-10-31T04:11:36;4.10;;;3.10;;
50591;SDS011;36548;50.506;30.834;2022-10-31T04:13:47;6.42;;;2.78;;
50591;SDS011;36548;50.506;30.834;2022-10-31T04:15:05;4.00;;;2.22;;
50591;SDS011;36548;50.506;30.834;2022-10-31T04:16:16;2.80;;;1.98;;
50591;SDS011;36548;50.506;30.834;2022-10-31T04:17:34;2.78;;;2.10;;
50591;SDS011;36548;50.506;30.834;2022-10-31T04:18:46;2.63;;;1.97;;
50591;SDS011;36548;50.506;30.834;2022-10-31T04:19:58;4.63;;;2.02;;
50591;SDS011;36548;50.506;30.834;2022-10-31T04:21:09;3.37;;;1.65;;
50591;SDS011;36548;50.506;30.834;2022-10-31T04:22:19;3.40;;;2.05;;
50591;SDS011;36548;50.506;30.834;2022-10-31T04:23:29;3.70;;;1.67;;
50591;SDS011;36548;50.506;30.834;2022-10-31T04:24:40;3.60;;;1.67;;
50591;SDS011;36548;50.506;30.834;2022-10-31T04:25:50;4.35;;;2.10;;
50591;SDS011;36548;50.506;30.834;2022-10-31T04:26:59;3.48;;;1.92;;
50591;SDS011;36548;50.506;30.834;2022-10-31T04:28:09;2.80;;;1.65;;
50591;SDS011;36548;50.506;30.834;2022-10-31T04:29:19;2.63;;;1.67;;
50591;SDS011;36548;50.506;30.834;2022-10-31T04:30:28;2.90;;;2.27;;
50591;SDS011;36548;50.506;30.834;2022-10-31T04:31:39;2.42;;;1.92;;
50591;SDS011;36548;50.506;30.834;2022-10-31T04:32:49;3.80;;;1.92;;
50591;SDS011;36548;50.506;30.834;2022-10-31T04:34:03;2.38;;;1.78;;
50591;SDS011;36548;50.506;30.834;2022-10-31T04:37:34;4.15;;;2.43;;
50591;SDS011;36548;50.506;30.834;2022-10-31T04:38:50;6.90;;;2.63;;
50591;SDS011;36548;50.506;30.834;2022-10-31T04:40:11;6.45;;;3.10;;
50591;SDS011;36548;50.506;30.834;2022-10-31T04:41:26;5.53;;;2.58;;
50591;SDS011;36548;50.506;30.834;2022-10-31T04:42:36;5.05;;;2.87;;
50591;SDS011;36548;50.506;30.834;2022-10-31T04:43:47;7.05;;;3.65;;
50591;SDS011;36548;50.506;30.834;2022-10-31T04:44:58;7.72;;;3.83;;
50591;SDS011;36548;50.506;30.834;2022-10-31T04:46:08;12.27;;;6.43;;
50591;SDS011;36548;50.506;30.834;2022-10-31T04:47:23;12.90;;;7.10;;
50591;SDS011;36548;50.506;30.834;2022-10-31T04:48:34;11.22;;;6.60;;
50591;SDS011;36548;50.506;30.834;2022-10-31T04:49:46;10.48;;;5.58;;
50591;SDS011;36548;50.506;30.834;2022-10-31T04:52:38;7.74;;;4.58;;
50591;SDS011;36548;50.506;30.834;2022-10-31T04:53:54;9.65;;;5.25;;
50591;SDS011;36548;50.506;30.834;2022-10-31T04:55:11;7.88;;;4.88;;
50591;SDS011;36548;50.506;30.834;2022-10-31T04:56:38;9.23;;;5.20;;
50591;SDS011;36548;50.506;30.834;2022-10-31T04:57:53;4.02;;;3.05;;
50591;SDS011;36548;50.506;30.834;2022-10-31T04:59:04;3.70;;;2.83;;
50591;SDS011;36548;50.506;30.834;2022-10-31T05:00:19;65.83;;;7.77;;
50591;SDS011;36548;50.506;30.834;2022-10-31T05:01:32;3.92;;;2.45;;
50591;SDS011;36548;50.506;30.834;2022-10-31T05:02:49;2.05;;;1.83;;
50591;SDS011;36548;50.506;30.834;2022-10-31T05:03:59;2.28;;;1.60;;
50591;SDS011;36548;50.506;30.834;2022-10-31T05:05:16;3.48;;;2.03;;
50591;SDS011;36548;50.506;30.834;2022-10-31T05:06:27;2.83;;;1.60;;
50591;SDS011;36548;50.506;30.834;2022-10-31T05:07:39;2.10;;;1.40;;
50591;SDS011;36548;50.506;30.834;2022-10-31T05:08:56;1.33;;;1.17;;
50591;SDS011;36548;50.506;30.834;2022-10-31T05:10:06;2.30;;;1.63;;
50591;SDS011;36548;50.506;30.834;2022-10-31T05:11:22;2.95;;;1.60;;
50591;SDS011;36548;50.506;30.834;2022-10-31T05:12:31;2.50;;;1.15;;
50591;SDS011;36548;50.506;30.834;2022-10-31T05:13:52;3.32;;;1.12;;
50591;SDS011;36548;50.506;30.834;2022-10-31T05:15:21;1.32;;;0.92;;
50591;SDS011;36548;50.506;30.834;2022-10-31T05:16:50;1.80;;;0.90;;
50591;SDS011;36548;50.506;30.834;2022-10-31T05:18:05;1.75;;;1.02;;
50591;SDS011;36548;50.506;30.834;2022-10-31T05:19:22;1.32;;;0.97;;
50591;SDS011;36548;50.506;30.834;2022-10-31T05:20:50;2.00;;;1.22;;
50591;SDS011;36548;50.506;30.834;2022-10-31T05:22:04;2.40;;;1.67;;
50591;SDS011;36548;50.506;30.834;2022-10-31T05:23:20;4.13;;;2.73;;
50591;SDS011;36548;50.506;30.834;2022-10-31T05:24:29;3.53;;;1.95;;
50591;SDS011;36548;50.506;30.834;2022-10-31T05:25:39;1.53;;;1.22;;
50591;SDS011;36548;50.506;30.834;2022-10-31T05:26:55;2.85;;;0.80;;
50591;SDS011;36548;50.506;30.834;2022-10-31T05:28:05;1.50;;;0.75;;
50591;SDS011;36548;50.506;30.834;2022-10-31T05:29:20;3.55;;;1.00;;
50591;SDS011;36548;50.506;30.834;2022-10-31T05:30:30;1.22;;;1.00;;
50591;SDS011;36548;50.506;30.834;2022-10-31T05:31:40;3.18;;;1.53;;
50591;SDS011;36548;50.506;30.834;2022-10-31T05:32:56;2.23;;;1.40;;
50591;SDS011;36548;50.506;30.834;2022-10-31T05:34:55;3.58;;;1.80;;
50591;SDS011;36548;50.506;30.834;2022-10-31T05:36:11;2.67;;;1.85;;
50591;SDS011;36548;50.506;30.834;2022-10-31T05:37:26;2.78;;;1.97;;
50591;SDS011;36548;50.506;30.834;2022-10-31T05:38:41;4.70;;;3.10;;
50591;SDS011;36548;50.506;30.834;2022-10-31T05:39:55;6.68;;;3.77;;
50591;SDS011;36548;50.506;30.834;2022-10-31T05:41:05;4.10;;;2.70;;
50591;SDS011;36548;50.506;30.834;2022-10-31T05:42:20;4.82;;;2.42;;
50591;SDS011;36548;50.506;30.834;2022-10-31T05:43:29;3.95;;;2.20;;
50591;SDS011;36548;50.506;30.834;2022-10-31T05:44:45;4.87;;;1.45;;
50591;SDS011;36548;50.506;30.834;2022-10-31T05:45:57;2.33;;;1.32;;
50591;SDS011;36548;50.506;30.834;2022-10-31T05:47:13;8.10;;;6.00;;
50591;SDS011;36548;50.506;30.834;2022-10-31T05:48:36;9.22;;;8.22;;
50591;SDS011;36548;50.506;30.834;2022-10-31T05:49:52;5.20;;;2.80;;
50591;SDS011;36548;50.506;30.834;2022-10-31T05:51:05;4.27;;;2.28;;
50591;SDS011;36548;50.506;30.834;2022-10-31T05:52:20;3.90;;;2.38;;
50591;SDS011;36548;50.506;30.834;2022-10-31T05:53:32;2.33;;;1.62;;
50591;SDS011;36548;50.506;30.834;2022-10-31T05:54:47;2.62;;;1.30;;
50591;SDS011;36548;50.506;30.834;2022-10-31T05:55:57;3.57;;;2.18;;
50591;SDS011;36548;50.506;30.834;2022-10-31T05:57:12;2.23;;;1.43;;
50591;SDS011;36548;50.506;30.834;2022-10-31T05:58:21;2.07;;;1.28;;
50591;SDS011;36548;50.506;30.834;2022-10-31T05:59:36;3.57;;;2.28;;
50591;SDS011;36548;50.506;30.834;2022-10-31T06:00:46;11.02;;;8.17;;
50591;SDS011;36548;50.506;30.834;2022-10-31T06:02:02;2.75;;;1.85;;
50591;SDS011;36548;50.506;30.834;2022-10-31T06:03:59;2.82;;;1.62;;
50591;SDS011;36548;50.506;30.834;2022-10-31T06:05:15;2.08;;;1.50;;
50591;SDS011;36548;50.506;30.834;2022-10-31T06:06:27;2.32;;;1.70;;
50591;SDS011;36548;50.506;30.834;2022-10-31T06:07:43;2.13;;;0.77;;
50591;SDS011;36548;50.506;30.834;2022-10-31T06:08:53;5.15;;;0.77;;
50591;SDS011;36548;50.506;30.834;2022-10-31T06:10:28;1.42;;;0.67;;
50591;SDS011;36548;50.506;30.834;2022-10-31T06:11:38;2.77;;;0.97;;
50591;SDS011;36548;50.506;30.834;2022-10-31T06:12:53;1.75;;;1.38;;
50591;SDS011;36548;50.506;30.834;2022-10-31T06:14:06;50.13;;;5.38;;
50591;SDS011;36548;50.506;30.834;2022-10-31T06:15:22;13.17;;;2.37;;
50591;SDS011;36548;50.506;30.834;2022-10-31T06:16:34;1.57;;;1.05;;
50591;SDS011;36548;50.506;30.834;2022-10-31T06:18:03;2.67;;;0.75;;
50591;SDS011;36548;50.506;30.834;2022-10-31T06:19:28;5.40;;;0.80;;
50591;SDS011;36548;50.506;30.834;2022-10-31T06:20:43;3.50;;;1.22;;
50591;SDS011;36548;50.506;30.834;2022-10-31T06:21:52;1.93;;;0.87;;
50591;SDS011;36548;50.506;30.834;2022-10-31T06:23:02;4.06;;;2.08;;
50591;SDS011;36548;50.506;30.834;2022-10-31T06:25:48;7.85;;;2.00;;
50591;SDS011;36548;50.506;30.834;2022-10-31T06:27:05;2.13;;;1.52;;
50591;SDS011;36548;50.506;30.834;2022-10-31T06:28:15;11.82;;;1.40;;
50591;SDS011;36548;50.506;30.834;2022-10-31T06:29:30;2.85;;;0.92;;
50591;SDS011;36548;50.506;30.834;2022-10-31T06:30:47;1.60;;;0.90;;
50591;SDS011;36548;50.506;30.834;2022-10-31T06:32:02;2.22;;;1.20;;
50591;SDS011;36548;50.506;30.834;2022-10-31T06:33:12;3.20;;;1.70;;
50591;SDS011;36548;50.506;30.834;2022-10-31T06:34:27;2.53;;;1.70;;
50591;SDS011;36548;50.506;30.834;2022-10-31T06:35:35;3.43;;;2.28;;
50591;SDS011;36548;50.506;30.834;2022-10-31T06:36:51;3.62;;;2.38;;
50591;SDS011;36548;50.506;30.834;2022-10-31T06:38:02;3.00;;;2.05;;
50591;SDS011;36548;50.506;30.834;2022-10-31T06:39:17;3.25;;;2.05;;
50591;SDS011;36548;50.506;30.834;2022-10-31T06:40:26;6.95;;;1.80;;
50591;SDS011;36548;50.506;30.834;2022-10-31T06:41:53;2.92;;;1.10;;
50591;SDS011;36548;50.506;30.834;2022-10-31T06:43:08;3.72;;;1.15;;
50591;SDS011;36548;50.506;30.834;2022-10-31T06:44:20;1.83;;;1.05;;
50591;SDS011;36548;50.506;30.834;2022-10-31T06:45:40;1.55;;;0.75;;
50591;SDS011;36548;50.506;30.834;2022-10-31T06:46:58;1.25;;;1.10;;
50591;SDS011;36548;50.506;30.834;2022-10-31T06:48:27;4.77;;;2.92;;
50591;SDS011;36548;50.506;30.834;2022-10-31T06:49:44;3.75;;;2.20;;
50591;SDS011;36548;50.506;30.834;2022-10-31T06:50:58;1.50;;;1.03;;
50591;SDS011;36548;50.506;30.834;2022-10-31T06:52:08;1.45;;;1.00;;
50591;SDS011;36548;50.506;30.834;2022-10-31T06:53:24;3.90;;;1.95;;
50591;SDS011;36548;50.506;30.834;2022-10-31T06:54:34;3.25;;;2.55;;
50591;SDS011;36548;50.506;30.834;2022-10-31T06:55:43;2.07;;;1.47;;
50591;SDS011;36548;50.506;30.834;2022-10-31T06:56:59;2.83;;;1.10;;
50591;SDS011;36548;50.506;30.834;2022-10-31T06:58:08;2.43;;;1.35;;
50591;SDS011;36548;50.506;30.834;2022-10-31T06:59:24;2.05;;;1.68;;
50591;SDS011;36548;50.506;30.834;2022-10-31T07:01:15;3.15;;;1.28;;
50591;SDS011;36548;50.506;30.834;2022-10-31T07:02:30;2.38;;;0.95;;
50591;SDS011;36548;50.506;30.834;2022-10-31T07:03:39;1.70;;;0.90;;
50591;SDS011;36548;50.506;30.834;2022-10-31T07:04:55;2.95;;;1.87;;
50591;SDS011;36548;50.506;30.834;2022-10-31T07:06:05;14.58;;;11.33;;
50591;SDS011;36548;50.506;30.834;2022-10-31T07:07:20;14.05;;;12.48;;
50591;SDS011;36548;50.506;30.834;2022-10-31T07:08:32;10.22;;;5.92;;
50591;SDS011;36548;50.506;30.834;2022-10-31T07:09:42;9.18;;;7.08;;
50591;SDS011;36548;50.506;30.834;2022-10-31T07:10:57;6.08;;;4.17;;
50591;SDS011;36548;50.506;30.834;2022-10-31T07:12:06;5.25;;;4.10;;
50591;SDS011;36548;50.506;30.834;2022-10-31T07:13:22;2.58;;;1.60;;
50591;SDS011;36548;50.506;30.834;2022-10-31T07:14:36;1.47;;;1.07;;
50591;SDS011;36548;50.506;30.834;2022-10-31T07:15:54;1.12;;;0.87;;
50591;SDS011;36548;50.506;30.834;2022-10-31T07:17:06;1.65;;;0.92;;
50591;SDS011;36548;50.506;30.834;2022-10-31T07:18:21;2.05;;;1.00;;
50591;SDS011;36548;50.506;30.834;2022-10-31T07:19:31;1.53;;;1.13;;
50591;SDS011;36548;50.506;30.834;2022-10-31T07:20:41;1.32;;;1.22;;
50591;SDS011;36548;50.506;30.834;2022-10-31T07:21:56;4.15;;;1.77;;
50591;SDS011;36548;50.506;30.834;2022-10-31T07:23:09;2.50;;;2.08;;
50591;SDS011;36548;50.506;30.834;2022-10-31T07:24:25;5.03;;;2.12;;
50591;SDS011;36548;50.506;30.834;2022-10-31T07:25:38;4.32;;;1.70;;
50591;SDS011;36548;50.506;30.834;2022-10-31T07:26:54;2.65;;;1.40;;
50591;SDS011;36548;50.506;30.834;2022-10-31T07:28:04;1.08;;;0.88;;
50591;SDS011;36548;50.506;30.834;2022-10-31T07:29:20;2.57;;;0.88;;
50591;SDS011;36548;50.506;30.834;2022-10-31T07:30:31;2.00;;;1.35;;
50591;SDS011;36548;50.506;30.834;2022-10-31T07:31:46;2.80;;;1.92;;
50591;SDS011;36548;50.506;30.834;2022-10-31T07:34:12;2.38;;;1.47;;
50591;SDS011;36548;50.506;30.834;2022-10-31T07:35:41;3.25;;;1.85;;
50591;SDS011;36548;50.506;30.834;2022-10-31T07:36:55;5.27;;;2.42;;
50591;SDS011;36548;50.506;30.834;2022-10-31T07:38:09;4.32;;;2.35;;
50591;SDS011;36548;50.506;30.834;2022-10-31T07:39:19;4.48;;;1.93;;
50591;SDS011;36548;50.506;30.834;2022-10-31T07:40:54;3.27;;;1.27;;
50591;SDS011;36548;50.506;30.834;2022-10-31T07:42:03;1.27;;;0.88;;
50591;SDS011;36548;50.506;30.834;2022-10-31T07:43:18;1.95;;;1.15;;
50591;SDS011;36548;50.506;30.834;2022-10-31T07:45:13;2.27;;;0.88;;
50591;SDS011;36548;50.506;30.834;2022-10-31T07:46:30;1.52;;;1.00;;
50591;SDS011;36548;50.506;30.834;2022-10-31T07:47:39;1.70;;;1.20;;
50591;SDS011;36548;50.506;30.834;2022-10-31T07:48:56;1.15;;;1.00;;
50591;SDS011;36548;50.506;30.834;2022-10-31T07:50:25;2.12;;;1.17;;
50591;SDS011;36548;50.506;30.834;2022-10-31T07:51:42;1.63;;;0.90;;
50591;SDS011;36548;50.506;30.834;2022-10-31T07:53:02;1.37;;;0.85;;
50591;SDS011;36548;50.506;30.834;2022-10-31T07:54:19;3.05;;;1.48;;
50591;SDS011;36548;50.506;30.834;2022-10-31T07:55:30;1.92;;;1.16;;
50591;SDS011;36548;50.506;30.834;2022-10-31T07:56:46;3.13;;;1.95;;
50591;SDS011;36548;50.506;30.834;2022-10-31T07:59:14;2.87;;;2.13;;
50591;SDS011;36548;50.506;30.834;2022-10-31T08:00:23;2.95;;;2.02;;
50591;SDS011;36548;50.506;30.834;2022-10-31T08:01:38;2.47;;;1.93;;
50591;SDS011;36548;50.506;30.834;2022-10-31T08:03:07;2.38;;;0.92;;